Time;durP1;ratioP1;P1;durP2;ratioP2;P2;SDS_P1;SDS_P2;PMS_P1;PMS_P2;Temp;Humidity;BMP_temperature;BMP_pressure;BME280_temperature;BME280_humidity;BME280_pressure;Samples;Min_cycle;Max_cycle;Signal;HPM_P1;HPM_P2
2022/01/23 00:01:54;;;;;;;39.33;26.80;;;4.60;73.70;;;;;;5032609;28;20026;-82
2022/01/23 00:04:20;;;;;;;37.10;27.20;;;4.60;73.60;;;;;;5029438;28;20057;-82
2022/01/23 00:06:47;;;;;;;36.23;27.03;;;4.60;73.70;;;;;;5030349;28;20021;-82
2022/01/23 00:09:15;;;;;;;37.03;26.63;;;4.60;73.70;;;;;;5030806;28;20033;-83
2022/01/23 00:11:48;;;;;;;35.20;26.83;;;4.60;73.80;;;;;;5031049;28;20033;-83
2022/01/23 00:19:39;;;;;;;40.23;29.03;;;4.60;73.90;;;;;;5030830;28;20026;-80
2022/01/23 00:22:08;;;;;;;38.37;27.73;;;4.60;73.90;;;;;;5026869;28;20025;-80
2022/01/23 00:32:49;;;;;;;38.57;27.73;;;4.60;73.80;;;;;;5017974;28;20053;-80
2022/01/23 00:35:15;;;;;;;42.67;29.80;;;4.60;73.90;;;;;;5020749;28;20025;-80
2022/01/23 00:37:43;;;;;;;42.83;29.80;;;4.60;73.90;;;;;;5045792;28;20100;-80
2022/01/23 00:40:09;;;;;;;37.30;28.20;;;4.60;74.00;;;;;;5006147;28;21369;-81
2022/01/23 00:42:35;;;;;;;41.57;29.80;;;4.70;74.00;;;;;;5026804;28;20049;-80
2022/01/23 00:45:47;;;;;;;38.97;28.00;;;4.60;73.90;;;;;;5030198;28;20029;-80
2022/01/23 00:47:55;;;;;;;39.87;28.43;;;4.60;73.90;;;;;;5025597;28;20072;-81
2022/01/23 00:50:20;;;;;;;37.53;27.67;;;4.60;73.90;;;;;;5020215;28;20035;-80
2022/01/23 00:52:46;;;;;;;35.17;27.40;;;4.60;73.90;;;;;;5024440;28;20028;-80
2022/01/23 00:55:12;;;;;;;39.97;28.60;;;4.60;73.90;;;;;;5018401;28;20579;-80
2022/01/23 00:57:38;;;;;;;37.27;28.00;;;4.60;74.00;;;;;;5020239;28;20052;-81
2022/01/23 01:00:05;;;;;;;38.23;28.00;;;4.60;74.00;;;;;;5027566;28;20053;-80
2022/01/23 01:02:31;;;;;;;37.93;28.37;;;4.60;74.00;;;;;;5020116;28;20026;-81
2022/01/23 01:04:57;;;;;;;41.07;29.47;;;4.60;73.90;;;;;;5031159;28;20056;-80
2022/01/23 01:07:23;;;;;;;39.97;29.10;;;4.60;73.90;;;;;;5021189;28;20065;-80
2022/01/23 01:09:52;;;;;;;38.87;29.63;;;4.70;74.00;;;;;;5025250;28;20066;-81
2022/01/23 01:12:22;;;;;;;40.27;29.00;;;4.70;74.00;;;;;;5022054;28;20128;-81
2022/01/23 01:17:26;;;;;;;44.90;31.00;;;4.60;73.90;;;;;;5028644;28;20026;-81
2022/01/23 01:33:43;;;;;;;40.03;28.90;;;4.70;74.40;;;;;;5028763;28;20387;-80
2022/01/23 01:38:54;;;;;;;37.87;28.63;;;4.70;73.90;;;;;;5029543;28;20036;-81
2022/01/23 01:41:21;;;;;;;41.90;30.57;;;4.60;73.80;;;;;;5001327;28;20029;-80
2022/01/23 01:43:48;;;;;;;44.67;30.87;;;4.60;74.00;;;;;;5022768;28;20042;-80
2022/01/23 01:46:14;;;;;;;43.37;30.33;;;4.60;73.90;;;;;;5020094;28;20340;-81
2022/01/23 01:48:41;;;;;;;46.50;31.03;;;4.60;74.10;;;;;;5017855;28;20033;-81
2022/01/23 01:51:13;;;;;;;41.67;31.03;;;4.60;74.30;;;;;;5024024;28;20410;-81
2022/01/23 01:53:44;;;;;;;46.23;30.47;;;4.60;74.20;;;;;;5022712;28;20411;-81
2022/01/23 01:56:10;;;;;;;43.80;32.10;;;4.70;74.30;;;;;;5026763;28;20037;-81
2022/01/23 02:09:24;;;;;;;44.13;32.37;;;4.70;74.00;;;;;;5017003;28;20040;-81
2022/01/23 02:55:09;;;;;;;40.20;28.00;;;4.70;74.40;;;;;;5028599;28;20076;-81
2022/01/23 03:00:14;;;;;;;43.13;31.37;;;4.70;74.20;;;;;;5022317;28;20034;-81
2022/01/23 03:02:46;;;;;;;44.70;32.80;;;4.70;74.20;;;;;;5026314;28;20454;-80
2022/01/23 03:05:15;;;;;;;44.35;31.92;;;4.70;74.40;;;;;;5027702;28;20030;-81
2022/01/23 03:07:57;;;;;;;46.77;32.90;;;4.70;74.30;;;;;;5026113;28;20033;-80
2022/01/23 03:10:31;;;;;;;45.80;30.90;;;4.70;74.40;;;;;;5021525;28;20018;-80
2022/01/23 03:13:41;;;;;;;43.13;30.33;;;4.80;74.40;;;;;;5013031;28;20088;-80
2022/01/23 03:26:36;;;;;;;42.90;29.63;;;4.80;73.90;;;;;;5022550;28;20124;-80
2022/01/23 03:31:43;;;;;;;54.17;33.87;;;4.80;74.00;;;;;;5017917;28;20038;-80
2022/01/23 03:34:08;;;;;;;53.23;34.73;;;4.80;74.10;;;;;;5021284;28;20037;-80
2022/01/23 03:36:36;;;;;;;48.90;34.87;;;4.80;74.00;;;;;;5022978;28;20499;-80
2022/01/23 03:39:06;;;;;;;49.87;33.67;;;4.70;74.00;;;;;;5016181;28;20030;-80
2022/01/23 03:41:35;;;;;;;52.00;34.87;;;4.80;74.10;;;;;;5016591;28;20565;-81
2022/01/23 03:44:03;;;;;;;49.37;34.67;;;4.80;74.10;;;;;;5006446;28;20037;-80
2022/01/23 03:49:33;;;;;;;50.73;35.03;;;4.80;74.00;;;;;;5026547;28;20040;-81
2022/01/23 03:52:04;;;;;;;53.30;36.43;;;4.80;73.90;;;;;;5016166;28;20393;-81
2022/01/23 03:54:30;;;;;;;60.30;36.23;;;4.80;74.00;;;;;;5021063;28;20075;-81
2022/01/23 03:56:57;;;;;;;55.43;36.10;;;4.80;74.10;;;;;;5015648;28;20030;-80
2022/01/23 03:59:23;;;;;;;51.10;35.60;;;4.80;74.10;;;;;;5028545;28;20476;-80
2022/01/23 04:01:50;;;;;;;53.40;36.13;;;4.70;74.10;;;;;;5026568;28;20036;-80
2022/01/23 04:04:37;;;;;;;60.23;39.83;;;4.80;74.30;;;;;;5028876;28;20045;-80
2022/01/23 04:07:16;;;;;;;68.00;42.70;;;4.80;74.10;;;;;;5025816;28;20075;-80
2022/01/23 04:09:43;;;;;;;59.47;37.80;;;4.80;74.10;;;;;;5025052;28;20040;-81
2022/01/23 04:12:16;;;;;;;53.77;38.37;;;4.80;74.10;;;;;;5022261;28;20026;-81
2022/01/23 04:14:49;;;;;;;;;;;4.80;74.10;;;;;;5021436;28;20471;-81
2022/01/23 04:18:02;;;;;;;55.42;36.05;;;4.80;74.20;;;;;;5021784;28;19909;-80
2022/01/23 04:20:27;;;;;;;52.13;33.87;;;4.70;74.00;;;;;;5029134;28;20083;-80
2022/01/23 04:33:53;;;;;;;55.73;34.90;;;4.70;74.20;;;;;;5026398;28;20388;-80
2022/01/23 05:01:05;;;;;;;53.57;37.43;;;4.70;74.30;;;;;;5028328;28;20094;-81
2022/01/23 05:04:09;;;;;;;56.03;35.67;;;4.70;74.40;;;;;;5026093;28;20093;-80
2022/01/23 05:06:43;;;;;;;51.60;35.03;;;4.70;74.40;;;;;;5024595;28;20022;-80
2022/01/23 05:09:11;;;;;;;51.43;34.47;;;4.70;74.40;;;;;;5021032;28;20032;-80
2022/01/23 05:11:42;;;;;;;56.97;36.60;;;4.80;74.40;;;;;;5029071;28;20508;-80
2022/01/23 05:14:09;;;;;;;52.53;35.20;;;4.70;74.30;;;;;;5030537;28;20030;-80
2022/01/23 05:16:35;;;;;;;59.70;37.57;;;4.70;74.40;;;;;;5030364;28;20284;-80
2022/01/23 05:19:04;;;;;;;50.20;34.33;;;4.70;74.50;;;;;;5025022;28;20034;-80
2022/01/23 05:23:56;;;;;;;57.37;36.90;;;4.70;74.60;;;;;;5029787;28;20558;-80
2022/01/23 05:26:22;;;;;;;63.33;37.33;;;4.70;74.60;;;;;;5023010;28;20029;-80
2022/01/23 05:28:48;;;;;;;55.60;36.13;;;4.70;74.60;;;;;;5026331;28;20093;-81
2022/01/23 05:31:14;;;;;;;57.07;35.93;;;4.70;74.60;;;;;;5029830;28;20502;-81
2022/01/23 05:33:39;;;;;;;58.37;37.40;;;4.70;74.50;;;;;;5030901;28;20025;-80
2022/01/23 05:36:06;;;;;;;57.10;37.60;;;4.70;74.50;;;;;;5025583;28;20021;-80
2022/01/23 05:38:32;;;;;;;64.90;38.63;;;4.70;74.60;;;;;;5028724;28;20041;-80
2022/01/23 05:40:59;;;;;;;59.30;37.20;;;4.70;74.50;;;;;;5027768;28;20034;-80
2022/01/23 05:43:25;;;;;;;59.37;36.03;;;4.70;74.60;;;;;;5019338;28;20060;-81
2022/01/23 05:45:51;;;;;;;112.67;43.87;;;4.70;74.60;;;;;;5025830;28;20045;-80
2022/01/23 05:48:17;;;;;;;66.13;40.20;;;4.80;74.60;;;;;;5022957;28;20021;-80
2022/01/23 05:50:44;;;;;;;65.90;38.93;;;4.80;74.60;;;;;;5024560;28;20017;-80
2022/01/23 05:53:10;;;;;;;60.53;36.47;;;4.80;74.50;;;;;;5021761;28;20037;-80
2022/01/23 05:55:35;;;;;;;63.67;37.93;;;4.80;74.70;;;;;;5026481;28;20026;-80
2022/01/23 05:58:01;;;;;;;61.23;37.47;;;4.80;74.70;;;;;;5029461;28;20500;-80
2022/01/23 06:00:27;;;;;;;62.90;39.77;;;4.80;74.90;;;;;;5029842;28;20492;-80
2022/01/23 06:02:53;;;;;;;70.07;40.83;;;4.80;74.90;;;;;;5029492;28;20017;-81
2022/01/23 06:05:19;;;;;;;67.77;41.10;;;4.80;74.70;;;;;;5029357;28;20381;-80
2022/01/23 06:07:46;;;;;;;62.17;39.10;;;4.80;74.50;;;;;;5029469;28;20033;-81
2022/01/23 06:10:21;;;;;;;65.97;40.00;;;4.80;74.60;;;;;;5028749;28;20026;-81
2022/01/23 06:12:46;;;;;;;61.53;37.10;;;4.80;74.70;;;;;;5028531;28;20022;-80
2022/01/23 06:15:12;;;;;;;62.43;37.33;;;4.80;74.60;;;;;;5015757;28;20092;-80
2022/01/23 06:17:38;;;;;;;61.97;37.70;;;4.80;74.50;;;;;;5022122;28;20029;-80
2022/01/23 06:20:07;;;;;;;63.13;37.50;;;4.80;74.30;;;;;;5024119;28;20384;-81
2022/01/23 06:22:33;;;;;;;65.67;36.57;;;4.80;74.50;;;;;;5029491;28;20492;-81
2022/01/23 06:24:58;;;;;;;66.37;38.70;;;4.80;74.30;;;;;;5028032;28;20029;-80
2022/01/23 06:27:24;;;;;;;69.57;38.87;;;4.70;74.50;;;;;;5024428;28;20579;-81
2022/01/23 06:29:50;;;;;;;71.00;39.77;;;4.70;74.60;;;;;;5021023;28;20032;-81
2022/01/23 06:32:15;;;;;;;70.90;39.17;;;4.70;74.60;;;;;;5022492;28;20014;-80
2022/01/23 06:34:42;;;;;;;69.57;39.93;;;4.70;74.40;;;;;;5020501;28;20052;-81
2022/01/23 06:37:08;;;;;;;66.83;40.23;;;4.60;74.60;;;;;;5023495;28;20121;-81
2022/01/23 06:39:33;;;;;;;80.37;45.33;;;4.60;74.80;;;;;;5016264;28;20121;-81
2022/01/23 06:41:59;;;;;;;70.30;39.97;;;4.60;75.00;;;;;;5027700;28;20369;-81
2022/01/23 06:44:26;;;;;;;66.90;39.27;;;4.60;75.10;;;;;;5029405;28;20036;-81
2022/01/23 06:46:52;;;;;;;67.00;40.23;;;4.70;75.20;;;;;;5025749;28;20043;-80
2022/01/23 06:49:18;;;;;;;67.67;39.87;;;4.70;75.00;;;;;;5024943;28;20021;-81
2022/01/23 06:51:44;;;;;;;66.23;38.20;;;4.80;75.10;;;;;;5028453;28;20021;-81
2022/01/23 06:54:10;;;;;;;60.97;37.23;;;4.80;74.90;;;;;;5022693;28;20055;-81
2022/01/23 06:56:36;;;;;;;60.90;37.23;;;4.80;74.70;;;;;;5019331;28;20461;-80
2022/01/23 06:59:02;;;;;;;71.07;41.27;;;4.80;74.80;;;;;;5027628;28;20108;-81
2022/01/23 07:01:28;;;;;;;73.87;40.90;;;4.80;74.60;;;;;;5026403;28;20067;-81
2022/01/23 07:03:54;;;;;;;61.60;37.70;;;4.70;74.90;;;;;;5032704;28;20025;-81
2022/01/23 07:06:19;;;;;;;64.47;38.50;;;4.70;75.00;;;;;;5021846;28;20029;-81
2022/01/23 07:08:45;;;;;;;64.70;38.47;;;4.70;75.10;;;;;;5018088;28;20733;-81
2022/01/23 07:11:11;;;;;;;65.10;37.53;;;4.80;75.00;;;;;;5028243;28;20048;-81
2022/01/23 07:13:36;;;;;;;63.23;37.13;;;4.80;74.80;;;;;;5023620;28;20560;-80
2022/01/23 07:16:02;;;;;;;69.70;37.33;;;4.80;74.70;;;;;;5018122;28;20088;-81
2022/01/23 07:18:28;;;;;;;64.97;36.67;;;4.80;74.70;;;;;;5021152;28;20491;-81
2022/01/23 07:20:54;;;;;;;67.70;38.50;;;4.80;74.80;;;;;;5028195;28;20053;-81
2022/01/23 07:23:22;;;;;;;62.73;36.93;;;4.70;74.70;;;;;;5024600;28;20025;-81
2022/01/23 07:25:49;;;;;;;64.30;38.77;;;4.70;74.80;;;;;;5026266;28;20502;-81
2022/01/23 07:28:18;;;;;;;63.10;36.40;;;4.80;75.30;;;;;;5025835;28;20483;-81
2022/01/23 07:30:52;;;;;;;61.27;35.73;;;4.80;75.10;;;;;;5027006;28;20025;-81
2022/01/23 07:33:19;;;;;;;67.37;36.10;;;4.80;75.00;;;;;;5022665;28;20017;-82
2022/01/23 07:35:46;;;;;;;66.07;35.80;;;4.80;74.80;;;;;;5017337;28;20113;-82
2022/01/23 07:38:16;;;;;;;60.70;35.50;;;4.80;74.80;;;;;;5025194;28;20049;-82
2022/01/23 07:40:46;;;;;;;62.40;33.73;;;4.90;75.00;;;;;;5041467;28;20040;-81
2022/01/23 07:43:12;;;;;;;65.17;36.97;;;4.90;74.80;;;;;;5026881;28;20083;-81
2022/01/23 07:45:39;;;;;;;61.90;33.63;;;4.90;74.70;;;;;;5016981;28;20058;-82
2022/01/23 07:48:05;;;;;;;65.27;35.63;;;4.90;74.80;;;;;;5018089;28;20053;-81
2022/01/23 07:50:31;;;;;;;65.27;36.43;;;4.90;75.00;;;;;;5015038;28;20495;-82
2022/01/23 07:52:56;;;;;;;62.57;34.50;;;5.00;74.80;;;;;;5020367;28;20060;-82
2022/01/23 07:55:22;;;;;;;56.77;33.13;;;5.00;74.80;;;;;;5019526;28;20053;-82
2022/01/23 07:57:48;;;;;;;54.30;31.27;;;5.00;75.00;;;;;;5023329;28;20054;-82
2022/01/23 08:00:14;;;;;;;53.93;32.37;;;5.10;74.90;;;;;;5023909;28;20091;-82
2022/01/23 08:02:41;;;;;;;55.47;31.30;;;5.20;74.90;;;;;;5019032;28;20030;-81
2022/01/23 08:05:09;;;;;;;54.30;29.80;;;5.30;74.60;;;;;;5024392;28;20052;-82
2022/01/23 08:07:36;;;;;;;53.07;32.20;;;5.40;74.70;;;;;;5022994;28;20504;-82
2022/01/23 08:10:05;;;;;;;52.90;30.03;;;5.40;74.50;;;;;;5018551;28;20026;-82
2022/01/23 08:12:31;;;;;;;53.93;32.17;;;5.50;74.40;;;;;;5021377;28;20022;-81
2022/01/23 08:14:58;;;;;;;60.70;35.37;;;5.50;74.10;;;;;;5023119;28;20480;-82
2022/01/23 08:17:25;;;;;;;56.37;32.80;;;5.50;74.10;;;;;;5018803;28;20029;-81
2022/01/23 08:19:59;;;;;;;60.57;32.77;;;5.50;74.10;;;;;;5017518;28;20021;-81
2022/01/23 08:22:27;;;;;;;60.43;32.20;;;5.40;74.10;;;;;;5023117;28;20401;-82
2022/01/23 08:24:54;;;;;;;58.43;32.17;;;5.40;74.00;;;;;;5025081;28;20488;-82
2022/01/23 08:27:22;;;;;;;64.40;34.53;;;5.50;73.80;;;;;;5016786;28;20025;-82
2022/01/23 08:29:48;;;;;;;66.17;35.00;;;5.40;73.60;;;;;;5021527;28;20033;-81
2022/01/23 08:32:13;;;;;;;69.70;36.53;;;5.40;73.50;;;;;;5014849;28;20048;-81
2022/01/23 08:34:40;;;;;;;70.90;35.77;;;5.40;73.40;;;;;;5016628;28;20026;-81
2022/01/23 08:37:07;;;;;;;76.10;36.07;;;5.30;73.70;;;;;;5018248;28;20087;-81
2022/01/23 08:39:36;;;;;;;72.47;36.80;;;5.30;73.70;;;;;;5047599;28;20079;-81
2022/01/23 08:42:12;;;;;;;75.73;37.70;;;5.30;73.80;;;;;;5021428;28;20025;-81
2022/01/23 08:44:38;;;;;;;77.50;37.70;;;5.20;73.90;;;;;;5028169;28;20033;-82
2022/01/23 08:47:05;;;;;;;73.73;35.40;;;5.20;74.00;;;;;;5019925;28;20042;-82
2022/01/23 08:49:33;;;;;;;82.50;37.80;;;5.20;74.30;;;;;;5024186;28;20468;-81
2022/01/23 08:51:59;;;;;;;71.30;34.10;;;5.10;74.20;;;;;;5019399;28;20117;-81
2022/01/23 08:54:27;;;;;;;64.67;33.50;;;5.10;74.40;;;;;;5022242;28;20057;-81
2022/01/23 08:56:53;;;;;;;66.90;34.37;;;5.20;74.50;;;;;;5021385;28;20030;-81
2022/01/23 08:59:19;;;;;;;82.00;37.53;;;5.30;74.50;;;;;;5024873;28;20121;-81
2022/01/23 09:01:44;;;;;;;69.33;35.10;;;5.30;74.30;;;;;;5022604;28;20030;-81
2022/01/23 09:04:15;;;;;;;73.50;36.27;;;5.30;74.10;;;;;;5026228;28;20113;-82
2022/01/23 09:06:42;;;;;;;74.80;35.40;;;5.30;74.40;;;;;;5030409;28;20030;-81
2022/01/23 09:09:15;;;;;;;64.27;33.33;;;5.30;74.50;;;;;;5028260;28;20030;-81
2022/01/23 09:11:52;;;;;;;68.73;35.43;;;5.40;74.40;;;;;;5023106;28;20052;-81
2022/01/23 09:14:20;;;;;;;68.20;33.87;;;5.50;74.20;;;;;;5025203;28;20028;-81
2022/01/23 09:16:46;;;;;;;70.23;35.07;;;5.50;74.10;;;;;;5024908;28;20033;-81
2022/01/23 09:19:12;;;;;;;65.30;34.23;;;5.50;74.20;;;;;;5026138;28;20116;-81
2022/01/23 09:21:39;;;;;;;67.80;34.63;;;5.50;74.00;;;;;;5022025;28;20129;-81
2022/01/23 09:24:06;;;;;;;70.63;34.87;;;5.60;73.90;;;;;;5020273;28;20101;-81
2022/01/23 09:26:34;;;;;;;67.87;34.93;;;5.60;73.90;;;;;;5027361;28;20034;-81
2022/01/23 09:29:01;;;;;;;71.13;34.80;;;5.60;73.80;;;;;;5028064;28;20468;-81
2022/01/23 09:33:54;;;;;;;69.40;34.10;;;5.70;73.70;;;;;;5022588;28;20526;-81
2022/01/23 09:36:19;;;;;;;65.80;34.03;;;5.70;73.80;;;;;;5028927;28;20022;-81
2022/01/23 09:38:45;;;;;;;64.93;34.40;;;5.70;73.80;;;;;;5029016;28;20440;-81
2022/01/23 09:41:19;;;;;;;65.50;32.23;;;5.70;73.60;;;;;;5030434;28;20026;-82
2022/01/23 09:43:46;;;;;;;54.57;29.63;;;5.80;73.70;;;;;;5025569;28;20140;-82
2022/01/23 09:46:13;;;;;;;57.57;32.23;;;5.80;73.60;;;;;;5023591;28;20080;-81
2022/01/23 09:48:44;;;;;;;61.37;34.03;;;5.90;73.90;;;;;;5027583;28;20392;-82
2022/01/23 09:51:10;;;;;;;63.80;34.93;;;5.90;73.50;;;;;;5027268;28;20032;-81
2022/01/23 09:53:39;;;;;;;59.50;32.97;;;5.90;73.50;;;;;;5024713;28;20022;-81
2022/01/23 09:56:06;;;;;;;60.87;35.97;;;6.00;73.60;;;;;;5025858;28;20036;-81
2022/01/23 09:58:33;;;;;;;54.87;30.33;;;6.10;73.30;;;;;;5025805;28;20147;-81
2022/01/23 10:00:59;;;;;;;57.67;33.33;;;6.10;73.20;;;;;;5030270;28;20037;-81
2022/01/23 10:03:25;;;;;;;58.67;32.30;;;6.20;73.10;;;;;;5027853;28;20025;-81
2022/01/23 10:05:56;;;;;;;51.07;28.90;;;6.20;72.80;;;;;;5024733;28;20397;-81
2022/01/23 10:08:23;;;;;;;56.03;31.53;;;6.20;72.80;;;;;;5026633;28;20057;-81
2022/01/23 10:10:54;;;;;;;61.47;34.10;;;6.20;72.80;;;;;;5016012;28;20563;-81
2022/01/23 10:13:24;;;;;;;60.13;31.40;;;6.20;72.60;;;;;;5024265;28;20475;-82
2022/01/23 10:15:50;;;;;;;59.30;32.53;;;6.30;72.60;;;;;;5022226;28;20400;-81
2022/01/23 10:18:17;;;;;;;63.17;33.67;;;6.30;72.60;;;;;;5025220;28;20546;-81
2022/01/23 10:20:45;;;;;;;66.63;33.00;;;6.30;72.30;;;;;;5019992;28;20026;-81
2022/01/23 10:23:12;;;;;;;63.03;33.87;;;6.30;72.30;;;;;;5019931;28;20017;-81
2022/01/23 10:25:43;;;;;;;61.97;34.17;;;6.30;72.30;;;;;;5025628;28;20022;-81
2022/01/23 10:28:19;;;;;;;60.93;34.80;;;6.30;72.20;;;;;;5020974;28;20053;-81
2022/01/23 10:30:50;;;;;;;60.90;34.10;;;6.30;72.20;;;;;;5024764;28;20381;-81
2022/01/23 10:33:19;;;;;;;56.70;32.07;;;6.30;72.10;;;;;;5025565;28;20028;-82
2022/01/23 10:36:09;;;;;;;62.77;35.53;;;6.30;72.30;;;;;;5021122;28;20112;-81
2022/01/23 10:38:36;;;;;;;60.27;34.87;;;6.30;72.20;;;;;;5018104;28;20218;-81
2022/01/23 10:50:07;;;;;;;64.20;34.53;;;6.20;72.20;;;;;;5020701;28;20385;-81
2022/01/23 10:52:44;;;;;;;61.03;34.53;;;6.20;72.50;;;;;;5019401;28;20474;-80
2022/01/23 10:55:31;;;;;;;62.93;35.57;;;6.20;72.30;;;;;;5024353;28;20423;-81
2022/01/23 10:58:00;;;;;;;72.03;35.77;;;6.30;72.10;;;;;;5024634;28;20344;-81
2022/01/23 11:00:28;;;;;;;122.70;57.10;;;6.30;72.00;;;;;;5018227;28;20121;-81
2022/01/23 11:02:55;;;;;;;75.73;39.27;;;6.30;72.10;;;;;;5031410;28;20068;-81
2022/01/23 11:05:38;;;;;;;83.20;41.07;;;6.30;72.60;;;;;;5031636;28;20029;-81
2022/01/23 11:08:18;;;;;;;70.27;36.17;;;6.40;72.70;;;;;;5032551;28;20025;-81
2022/01/23 11:10:59;;;;;;;70.53;36.00;;;6.50;71.90;;;;;;5017434;28;20025;-81
2022/01/23 11:19:40;;;;;;;58.73;32.17;;;6.50;71.90;;;;;;5023738;28;20036;-81
2022/01/23 11:22:06;;;;;;;58.33;32.83;;;6.50;71.70;;;;;;5027500;28;20083;-82
2022/01/23 11:24:45;;;;;;;56.93;32.43;;;6.50;71.90;;;;;;5031030;28;20033;-81
2022/01/23 11:27:11;;;;;;;61.23;34.07;;;6.60;72.00;;;;;;5023950;28;20030;-81
2022/01/23 11:29:52;;;;;;;56.27;32.27;;;6.70;71.80;;;;;;5030660;28;20103;-81
2022/01/23 11:32:20;;;;;;;56.47;33.47;;;6.90;71.70;;;;;;5028729;28;20030;-81
2022/01/23 11:34:47;;;;;;;52.33;31.47;;;7.00;71.20;;;;;;5029402;28;20079;-81
2022/01/23 11:37:15;;;;;;;58.73;33.87;;;7.10;71.20;;;;;;5031041;28;20403;-82
2022/01/23 11:39:53;;;;;;;58.10;34.07;;;7.10;71.00;;;;;;5020487;28;20040;-81
2022/01/23 11:56:38;;;;;;;51.77;31.30;;;7.10;70.70;;;;;;5031265;28;20047;-81
2022/01/23 11:59:24;;;;;;;52.20;32.17;;;7.30;70.30;;;;;;5032000;28;20028;-81
2022/01/23 12:02:12;;;;;;;101.03;46.80;;;7.30;70.10;;;;;;5028582;28;20043;-81
2022/01/23 12:04:39;;;;;;;181.47;64.13;;;7.40;70.10;;;;;;5029253;28;20040;-81
2022/01/23 12:07:12;;;;;;;233.37;65.80;;;7.50;70.10;;;;;;5019944;28;20087;-81
2022/01/23 12:10:01;;;;;;;185.02;58.92;;;7.60;69.80;;;;;;5030579;28;20025;-81
2022/01/23 12:18:25;;;;;;;128.90;58.03;;;7.60;69.40;;;;;;5031895;28;20025;-81
2022/01/23 12:20:54;;;;;;;93.83;44.90;;;7.60;69.60;;;;;;5030767;28;20033;-81
2022/01/23 12:23:20;;;;;;;101.23;45.87;;;7.60;69.50;;;;;;5030536;28;21396;-81
2022/01/23 12:25:55;;;;;;;57.00;31.57;;;7.90;69.50;;;;;;5030719;28;20068;-81
2022/01/23 12:28:28;;;;;;;58.60;33.10;;;8.20;68.80;;;;;;5016826;28;20025;-81
2022/01/23 12:31:00;;;;;;;55.97;33.83;;;8.40;68.60;;;;;;5035998;28;20041;-81
2022/01/23 12:33:28;;;;;;;61.47;33.55;;;8.50;68.70;;;;;;5022386;28;20079;-82
2022/01/23 12:36:01;;;;;;;70.20;37.67;;;8.50;68.00;;;;;;5036045;28;20027;-81
2022/01/23 12:38:30;;;;;;;45.53;28.77;;;8.70;68.00;;;;;;5034513;28;20554;-82
2022/01/23 12:41:23;;;;;;;48.57;29.53;;;8.70;67.60;;;;;;5034109;28;20030;-82
2022/01/23 12:44:04;;;;;;;40.17;26.58;;;8.70;67.20;;;;;;5032289;28;20021;-81
2022/01/23 12:46:49;;;;;;;41.20;25.50;;;8.60;67.30;;;;;;5027359;28;20392;-82
2022/01/23 12:49:22;;;;;;;35.97;23.00;;;8.60;67.20;;;;;;5027728;28;20021;-82
2022/01/23 12:52:11;;;;;;;32.47;21.53;;;8.60;66.90;;;;;;5033443;28;20117;-82
2022/01/23 12:54:52;;;;;;;35.20;22.77;;;8.80;66.70;;;;;;5035146;28;20021;-82
2022/01/23 12:57:28;;;;;;;37.47;22.90;;;8.90;66.00;;;;;;5033082;28;20022;-82
2022/01/23 13:00:00;;;;;;;38.70;23.40;;;8.90;66.00;;;;;;5033461;28;20030;-82
2022/01/23 13:02:33;;;;;;;29.05;19.20;;;9.00;65.90;;;;;;5026607;28;20029;-82
2022/01/23 13:04:59;;;;;;;36.30;21.90;;;9.10;65.70;;;;;;5032980;28;20029;-82
2022/01/23 13:10:09;;;;;;;34.00;22.37;;;9.10;65.30;;;;;;5035093;28;20480;-81
2022/01/23 13:31:50;;;;;;;32.43;21.27;;;8.80;65.20;;;;;;5034486;28;20061;-81
2022/01/23 13:34:27;;;;;;;30.40;19.93;;;8.80;65.10;;;;;;5033548;28;20026;-81
2022/01/23 13:36:56;;;;;;;28.93;19.53;;;8.80;65.10;;;;;;5033800;28;20104;-81
2022/01/23 13:39:28;;;;;;;29.43;19.27;;;8.70;65.20;;;;;;5034205;28;20022;-81
2022/01/23 13:51:32;;;;;;;28.13;18.00;;;8.70;65.20;;;;;;5034951;28;20064;-82
2022/01/23 14:00:25;;;;;;;28.60;18.63;;;8.80;64.70;;;;;;5034779;28;20717;-82
2022/01/23 14:02:34;;;;;;;29.90;18.08;;;8.80;64.90;;;;;;5032865;28;20033;-82
2022/01/23 14:05:08;;;;;;;27.83;18.60;;;8.80;64.70;;;;;;5032274;28;20388;-82
2022/01/23 14:07:36;;;;;;;27.37;19.23;;;8.90;64.80;;;;;;5013873;28;20030;-81
2022/01/23 14:10:34;;;;;;;28.33;19.23;;;8.90;64.70;;;;;;5012998;28;20390;-81
2022/01/23 14:13:24;;;;;;;30.75;20.17;;;8.80;64.40;;;;;;5014529;28;20429;-81
2022/01/23 14:15:55;;;;;;;34.20;22.10;;;8.70;64.70;;;;;;5012954;28;20022;-82
2022/01/23 14:18:26;;;;;;;34.87;23.20;;;8.60;64.90;;;;;;5013177;28;20558;-81
2022/01/23 14:21:11;;;;;;;40.03;23.13;;;8.60;64.90;;;;;;5013106;28;20030;-81
2022/01/23 14:23:38;;;;;;;40.00;25.13;;;8.50;65.00;;;;;;5012989;28;20366;-82
2022/01/23 14:26:08;;;;;;;39.57;25.00;;;8.40;64.90;;;;;;4996940;28;20084;-82
2022/01/23 14:28:47;;;;;;;38.83;25.90;;;8.30;65.20;;;;;;5014239;28;20096;-82
2022/01/23 14:31:18;;;;;;;36.00;23.57;;;8.20;65.30;;;;;;5014190;28;20025;-82
2022/01/23 14:33:48;;;;;;;33.93;22.30;;;8.10;65.40;;;;;;5014247;28;20022;-81
2022/01/23 14:36:26;;;;;;;36.03;22.20;;;8.00;65.60;;;;;;5014165;28;20480;-81
2022/01/23 14:39:23;;;;;;;34.00;20.20;;;7.80;65.90;;;;;;5012137;28;20061;-82
2022/01/23 14:41:50;;;;;;;22.77;14.93;;;7.70;66.10;;;;;;5012851;28;20033;-81
2022/01/23 14:44:22;;;;;;;26.03;16.30;;;7.60;66.20;;;;;;4996335;28;20029;-82
2022/01/23 14:46:51;;;;;;;26.35;16.50;;;7.60;66.20;;;;;;5012387;28;20438;-82
2022/01/23 14:49:29;;;;;;;22.70;14.83;;;7.60;66.30;;;;;;5017620;28;20029;-82
2022/01/23 14:51:57;;;;;;;23.33;16.73;;;7.60;66.30;;;;;;5031327;28;20061;-81
2022/01/23 14:54:25;;;;;;;24.70;16.60;;;7.70;66.10;;;;;;5033408;28;20029;-81
2022/01/23 14:56:51;;;;;;;24.63;16.67;;;7.70;65.90;;;;;;5033513;28;20472;-81
2022/01/23 14:59:17;;;;;;;25.17;17.60;;;7.60;65.90;;;;;;5032205;28;20033;-82
2022/01/23 15:01:45;;;;;;;27.77;17.33;;;7.60;66.10;;;;;;5033338;28;20025;-81
2022/01/23 15:04:12;;;;;;;28.67;18.53;;;7.60;66.30;;;;;;5032055;28;20112;-81
2022/01/23 15:06:48;;;;;;;28.40;19.00;;;7.60;66.30;;;;;;5031955;28;20029;-82
2022/01/23 15:09:17;;;;;;;29.43;19.60;;;7.60;66.20;;;;;;5031924;28;20116;-81
2022/01/23 15:11:43;;;;;;;32.43;20.50;;;7.50;66.30;;;;;;5033072;28;20073;-82
2022/01/23 15:14:10;;;;;;;37.83;22.57;;;7.50;66.50;;;;;;5031844;28;20027;-82
2022/01/23 15:16:37;;;;;;;34.50;21.43;;;7.50;66.60;;;;;;5033258;28;20080;-81
2022/01/23 15:19:04;;;;;;;32.43;21.03;;;7.40;67.00;;;;;;5031594;28;20075;-81
2022/01/23 15:21:30;;;;;;;36.77;23.50;;;7.30;67.20;;;;;;5028800;28;20025;-81
2022/01/23 15:23:56;;;;;;;37.27;24.30;;;7.30;67.20;;;;;;5031776;28;20030;-81
2022/01/23 15:26:28;;;;;;;38.83;24.77;;;7.20;67.70;;;;;;5031491;28;20038;-81
2022/01/23 15:28:54;;;;;;;31.77;21.83;;;7.20;67.90;;;;;;5031546;28;20057;-82
2022/01/23 15:31:20;;;;;;;31.87;21.53;;;7.20;67.80;;;;;;5032756;28;20075;-82
2022/01/23 15:33:46;;;;;;;25.43;18.20;;;7.20;67.70;;;;;;5030735;28;20022;-82
2022/01/23 15:36:11;;;;;;;30.57;21.07;;;7.20;67.70;;;;;;5031378;28;20032;-81
2022/01/23 15:38:42;;;;;;;30.87;20.50;;;7.20;67.80;;;;;;5032498;28;20499;-81
2022/01/23 15:41:39;;;;;;;29.77;18.33;;;7.20;67.70;;;;;;5031017;28;20021;-82
2022/01/23 15:44:06;;;;;;;26.87;18.53;;;7.20;68.00;;;;;;5024733;28;20518;-81
2022/01/23 15:46:31;;;;;;;28.73;18.30;;;7.20;67.90;;;;;;5029998;28;20109;-81
2022/01/23 15:48:57;;;;;;;33.07;19.47;;;7.10;68.00;;;;;;5028133;28;20105;-81
2022/01/23 15:51:23;;;;;;;29.40;18.23;;;7.10;67.90;;;;;;5025188;28;20055;-81
2022/01/23 15:53:48;;;;;;;26.37;17.97;;;7.10;68.00;;;;;;5030705;28;20084;-81
2022/01/23 15:56:14;;;;;;;26.20;18.33;;;7.00;68.00;;;;;;5030946;28;20503;-81
2022/01/23 15:58:40;;;;;;;23.17;16.87;;;7.00;68.10;;;;;;5032145;28;20025;-82
2022/01/23 16:01:06;;;;;;;29.33;19.63;;;7.00;68.20;;;;;;5025726;28;20018;-81
2022/01/23 16:03:46;;;;;;;29.20;18.90;;;6.90;68.10;;;;;;5033318;28;20033;-81
2022/01/23 16:06:12;;;;;;;27.33;17.97;;;6.80;68.40;;;;;;5036034;28;20317;-81
2022/01/23 16:08:38;;;;;;;31.37;20.27;;;6.80;68.40;;;;;;5023956;28;20060;-81
2022/01/23 16:11:06;;;;;;;34.20;20.77;;;6.80;68.50;;;;;;5033682;28;20025;-82
2022/01/23 16:13:31;;;;;;;33.70;22.07;;;6.70;68.40;;;;;;5034919;28;20083;-81
2022/01/23 16:15:58;;;;;;;40.80;27.23;;;6.60;68.80;;;;;;5034930;28;20124;-81
2022/01/23 16:18:25;;;;;;;35.70;24.03;;;6.50;69.10;;;;;;5030559;28;20477;-81
2022/01/23 16:20:52;;;;;;;32.30;21.90;;;6.50;69.20;;;;;;5032347;28;20029;-81
2022/01/23 16:23:18;;;;;;;62.63;45.03;;;6.40;69.10;;;;;;5034938;28;20032;-81
2022/01/23 16:25:44;;;;;;;54.50;36.57;;;6.30;69.30;;;;;;5032333;28;20033;-81
2022/01/23 16:28:11;;;;;;;55.83;39.63;;;6.20;69.40;;;;;;5028543;28;20449;-81